Time;durP1;ratioP1;P1;durP2;ratioP2;P2;SDS_P1;SDS_P2;PMS_P1;PMS_P2;Temp;Humidity;BMP_temperature;BMP_pressure;BME280_temperature;BME280_humidity;BME280_pressure;Samples;Min_cycle;Max_cycle;Signal;HPM_P1;HPM_P2
2022/01/06 00:00:16;;;;;;;0.70;0.70;;;;;;;-2.24;93.58;97084.06;4927588;29;20099;-84
2022/01/06 00:02:44;;;;;;;0.80;0.80;;;;;;;-2.20;93.56;97089.78;4901933;29;20103;-87
2022/01/06 00:05:11;;;;;;;0.80;0.80;;;;;;;-2.16;93.75;97093.59;4919251;29;20052;-86
2022/01/06 00:07:38;;;;;;;0.85;0.85;;;;;;;-2.15;93.65;97089.13;4924911;29;20060;-87
2022/01/06 00:10:09;;;;;;;0.70;0.70;;;;;;;-2.13;93.76;97092.38;4923707;29;20048;-86
2022/01/06 00:25:57;;;;;;;0.90;0.90;;;;;;;-1.97;93.90;97083.97;4924277;29;20071;-87
2022/01/06 00:28:25;;;;;;;0.88;0.88;;;;;;;-1.94;94.12;97088.81;4908469;29;20052;-86
2022/01/06 00:30:52;;;;;;;0.80;0.80;;;;;;;-1.88;94.09;97100.38;4923240;29;20171;-86
2022/01/06 00:33:20;;;;;;;0.80;0.80;;;;;;;-1.86;94.19;97099.16;4914939;29;20511;-85
2022/01/06 00:35:48;;;;;;;0.70;0.70;;;;;;;-1.83;94.14;97092.63;4933510;29;20080;-87
2022/01/06 00:38:15;;;;;;;0.77;0.77;;;;;;;-1.82;93.92;97095.06;4924976;29;20127;-87
2022/01/06 00:40:42;;;;;;;0.80;0.80;;;;;;;-1.81;94.07;97094.03;4923408;29;20723;-87
2022/01/06 00:43:11;;;;;;;0.80;0.80;;;;;;;-1.82;94.26;97097.72;4925446;29;20087;-92
2022/01/06 00:45:38;;;;;;;0.80;0.80;;;;;;;-1.77;94.26;97095.25;4908373;29;20404;-87
2022/01/06 00:48:07;;;;;;;0.80;0.80;;;;;;;-1.72;94.15;97099.06;4922933;29;20055;-87
2022/01/06 00:50:35;;;;;;;0.80;0.80;;;;;;;-1.71;94.03;97104.16;4926149;29;20054;-88
2022/01/06 00:53:04;;;;;;;0.80;0.80;;;;;;;-1.69;94.08;97102.09;4924300;29;20060;-90
2022/01/06 00:55:32;;;;;;;0.90;0.90;;;;;;;-1.64;94.00;97101.47;4917846;29;20056;-85
2022/01/06 00:58:00;;;;;;;0.90;0.90;;;;;;;-1.65;93.86;97105.13;4938754;29;20056;-86
2022/01/06 01:00:31;;;;;;;0.80;0.80;;;;;;;-1.65;93.67;97099.84;4937055;29;20079;-85
2022/01/06 01:02:58;;;;;;;0.80;0.80;;;;;;;-1.64;94.15;97106.75;4921862;29;20048;-87
2022/01/06 01:05:53;;;;;;;0.80;0.80;;;;;;;-1.57;94.03;97102.22;4926841;29;20040;-87
2022/01/06 01:08:20;;;;;;;0.77;0.77;;;;;;;-1.50;93.83;97102.19;4908366;29;20393;-89
2022/01/06 01:10:49;;;;;;;0.90;0.90;;;;;;;-1.49;93.29;97098.50;4922877;29;20075;-89
2022/01/06 01:13:26;;;;;;;0.80;0.80;;;;;;;-1.47;93.32;97107.03;4925688;29;20083;-88
2022/01/06 01:15:57;;;;;;;0.90;0.90;;;;;;;-1.47;93.10;97105.19;4920201;29;20055;-87
2022/01/06 01:18:24;;;;;;;0.90;0.90;;;;;;;-1.46;93.06;97104.19;4907624;29;20467;-81
2022/01/06 01:20:53;;;;;;;0.90;0.90;;;;;;;-1.43;93.17;97113.53;4906332;29;20060;-84
2022/01/06 01:23:21;;;;;;;0.88;0.88;;;;;;;-1.43;92.83;97106.41;4910982;29;20472;-83
2022/01/06 01:25:49;;;;;;;0.80;0.80;;;;;;;-1.44;92.66;97110.09;4927785;29;20503;-82
2022/01/06 01:28:16;;;;;;;0.75;0.75;;;;;;;-1.41;92.82;97095.63;4910831;29;20052;-82
2022/01/06 01:31:23;;;;;;;0.80;0.80;;;;;;;-1.42;92.82;97108.03;4928981;29;20107;-81
2022/01/06 01:33:37;;;;;;;0.70;0.70;;;;;;;-1.41;92.56;97096.44;4941862;29;20631;-81
2022/01/06 01:36:04;;;;;;;0.80;0.80;;;;;;;-1.42;92.85;97105.41;4932854;29;20503;-84
2022/01/06 01:38:32;;;;;;;0.80;0.80;;;;;;;-1.43;92.69;97092.38;4940866;29;20537;-85
2022/01/06 01:40:59;;;;;;;0.90;0.90;;;;;;;-1.46;92.83;97103.38;4930550;29;20095;-83
2022/01/06 01:43:26;;;;;;;0.85;0.85;;;;;;;-1.47;93.13;97097.25;4949579;29;20059;-84
2022/01/06 01:45:57;;;;;;;0.90;0.90;;;;;;;-1.45;93.07;97105.00;4942920;29;20051;-84
2022/01/06 01:48:33;;;;;;;0.80;0.80;;;;;;;-1.44;93.03;97104.81;4937709;29;20056;-86
2022/01/06 01:51:00;;;;;;;0.80;0.80;;;;;;;-1.44;93.20;97101.31;4937296;29;20186;-84
2022/01/06 01:53:28;;;;;;;0.80;0.80;;;;;;;-1.42;93.09;97101.91;4937124;29;20052;-85
2022/01/06 01:55:55;;;;;;;0.75;0.75;;;;;;;-1.43;93.26;97101.13;4937220;29;20063;-84
2022/01/06 01:58:22;;;;;;;0.90;0.90;;;;;;;-1.45;93.31;97097.88;4937036;29;20060;-85
2022/01/06 02:00:49;;;;;;;0.70;0.70;;;;;;;-1.47;93.64;97107.03;4904545;29;20542;-85
2022/01/06 02:03:16;;;;;;;0.90;0.90;;;;;;;-1.50;93.65;97103.00;4937259;29;20048;-85
2022/01/06 02:05:43;;;;;;;0.80;0.80;;;;;;;-1.49;93.73;97106.44;4936652;29;20083;-85
2022/01/06 02:08:11;;;;;;;0.80;0.80;;;;;;;-1.49;94.00;97093.22;4937271;29;20134;-85
2022/01/06 02:10:38;;;;;;;0.80;0.80;;;;;;;-1.47;93.91;97105.19;4920309;29;20416;-84
2022/01/06 02:13:05;;;;;;;0.90;0.90;;;;;;;-1.47;94.13;97093.81;4937259;29;20119;-84
2022/01/06 02:15:32;;;;;;;0.75;0.75;;;;;;;-1.47;94.12;97104.41;4919429;29;20055;-84
2022/01/06 02:18:00;;;;;;;0.80;0.80;;;;;;;-1.46;93.76;97100.75;4936891;29;20492;-85
2022/01/06 02:20:27;;;;;;;0.80;0.80;;;;;;;-1.43;93.83;97108.25;4936207;29;20047;-85
2022/01/06 02:22:55;;;;;;;1.00;1.00;;;;;;;-1.41;93.92;97104.38;4936549;29;20048;-85
2022/01/06 02:25:30;;;;;;;0.82;0.82;;;;;;;-1.38;93.70;97100.47;4936296;29;20515;-84
2022/01/06 02:28:00;;;;;;;0.70;0.70;;;;;;;-1.36;93.54;97112.47;4919833;29;20051;-86
2022/01/06 02:30:32;;;;;;;0.80;0.80;;;;;;;-1.39;93.37;97110.25;4936265;29;20078;-85
2022/01/06 02:33:01;;;;;;;0.75;0.75;;;;;;;-1.37;93.22;97110.03;4919588;29;20100;-84
2022/01/06 02:35:30;;;;;;;0.88;0.88;;;;;;;-1.38;93.35;97111.06;4919257;29;20059;-87
2022/01/06 02:37:57;;;;;;;0.77;0.77;;;;;;;-1.36;93.15;97116.97;4935226;29;20111;-85
2022/01/06 02:40:25;;;;;;;0.80;0.80;;;;;;;-1.36;92.99;97109.81;4919333;29;20048;-85
2022/01/06 02:42:56;;;;;;;0.70;0.70;;;;;;;-1.36;92.96;97117.75;4936817;29;20095;-84
2022/01/06 02:45:26;;;;;;;0.77;0.77;;;;;;;-1.39;92.71;97115.56;4936033;29;20519;-85
2022/01/06 02:47:54;;;;;;;0.80;0.80;;;;;;;-1.36;92.65;97125.69;4936619;29;20075;-86
2022/01/06 02:50:21;;;;;;;0.70;0.70;;;;;;;-1.40;92.54;97129.78;4936088;29;20119;-84
2022/01/06 02:52:49;;;;;;;0.80;0.80;;;;;;;-1.40;92.81;97128.97;4936427;29;20054;-85
2022/01/06 02:55:16;;;;;;;0.85;0.85;;;;;;;-1.41;92.80;97125.53;4945972;29;20142;-84
2022/01/06 02:57:44;;;;;;;0.90;0.90;;;;;;;-1.39;92.71;97131.44;4965706;29;20050;-84
2022/01/06 03:00:14;;;;;;;0.85;0.85;;;;;;;-1.37;92.97;97124.09;4955904;29;20110;-85
2022/01/06 03:02:42;;;;;;;0.70;0.70;;;;;;;-1.39;92.83;97126.13;4955372;29;20138;-85
2022/01/06 03:05:11;;;;;;;0.80;0.80;;;;;;;-1.40;92.66;97137.72;4955307;29;20054;-84
2022/01/06 03:07:38;;;;;;;0.90;0.90;;;;;;;-1.43;92.92;97129.41;4955108;29;20511;-85
2022/01/06 03:10:08;;;;;;;0.70;0.70;;;;;;;-1.43;92.95;97124.94;4955599;29;20055;-85
2022/01/06 03:12:41;;;;;;;0.88;0.88;;;;;;;-1.42;93.15;97131.88;4954709;29;20422;-83
2022/01/06 03:15:14;;;;;;;0.90;0.90;;;;;;;-1.40;93.43;97129.78;4955287;29;20455;-84
2022/01/06 03:18:07;;;;;;;0.90;0.90;;;;;;;-1.37;93.35;97132.03;4938007;29;20058;-84
2022/01/06 03:20:34;;;;;;;0.70;0.70;;;;;;;-1.41;93.29;97125.53;4938054;29;20090;-85
2022/01/06 03:23:01;;;;;;;0.80;0.80;;;;;;;-1.38;93.33;97135.69;4938152;29;20059;-84
2022/01/06 03:25:29;;;;;;;0.80;0.80;;;;;;;-1.35;93.47;97118.56;4937628;29;20051;-84
2022/01/06 03:27:56;;;;;;;0.80;0.80;;;;;;;-1.31;93.23;97123.22;4955209;29;20057;-84
2022/01/06 03:30:23;;;;;;;0.80;0.80;;;;;;;-1.31;92.88;97128.50;4961621;29;20106;-85
2022/01/06 03:32:51;;;;;;;0.90;0.90;;;;;;;-1.29;92.58;97127.47;4955516;29;20055;-84
2022/01/06 03:35:21;;;;;;;0.90;0.90;;;;;;;-1.38;92.56;97119.81;4967620;29;20574;-86
2022/01/06 03:37:48;;;;;;;0.80;0.80;;;;;;;-1.29;92.15;97133.59;4953894;29;20146;-85
2022/01/06 03:40:15;;;;;;;0.80;0.80;;;;;;;-1.28;92.29;97131.75;4954520;29;20051;-85
2022/01/06 03:42:42;;;;;;;0.75;0.75;;;;;;;-1.28;92.14;97129.13;4952790;29;20134;-85
2022/01/06 03:45:13;;;;;;;0.80;0.80;;;;;;;-1.33;92.18;97114.69;4937133;29;20135;-85
2022/01/06 03:47:40;;;;;;;0.90;0.90;;;;;;;-1.34;92.34;97123.66;4953168;28;20085;-85
2022/01/06 03:50:09;;;;;;;0.80;0.80;;;;;;;-1.37;92.22;97124.09;4936741;29;20075;-85
2022/01/06 03:52:37;;;;;;;0.70;0.70;;;;;;;-1.43;92.63;97121.47;4937028;29;20048;-85
2022/01/06 03:55:09;;;;;;;0.80;0.80;;;;;;;-1.47;92.97;97117.63;4936858;29;20043;-85
2022/01/06 03:57:36;;;;;;;0.90;0.90;;;;;;;-1.49;93.19;97123.16;4936555;29;20082;-84
2022/01/06 04:00:07;;;;;;;0.90;0.90;;;;;;;-1.52;93.21;97115.63;4954270;29;20511;-85
2022/01/06 04:02:38;;;;;;;0.90;0.90;;;;;;;-1.56;93.58;97111.78;4954068;29;20051;-84
2022/01/06 04:05:06;;;;;;;0.88;0.88;;;;;;;-1.57;93.94;97124.22;4954094;29;20055;-84
2022/01/06 04:07:33;;;;;;;0.80;0.80;;;;;;;-1.56;93.86;97125.03;4953860;29;20091;-84
2022/01/06 04:10:01;;;;;;;0.80;0.80;;;;;;;-1.56;93.89;97125.03;4958493;29;20067;-83
2022/01/06 04:12:29;;;;;;;0.80;0.80;;;;;;;-1.59;94.21;97125.47;4978842;29;20035;-84
2022/01/06 04:14:56;;;;;;;0.90;0.90;;;;;;;-1.59;94.59;97136.03;4978182;29;20046;-82
2022/01/06 04:17:25;;;;;;;0.90;0.90;;;;;;;-1.56;94.62;97136.41;4968947;29;20051;-84
2022/01/06 04:19:52;;;;;;;0.70;0.70;;;;;;;-1.56;94.60;97138.25;4940689;29;20051;-84
2022/01/06 04:22:19;;;;;;;0.80;0.80;;;;;;;-1.57;94.63;97134.81;4955988;29;20110;-84
2022/01/06 04:24:46;;;;;;;0.85;0.85;;;;;;;-1.58;94.74;97127.88;4937308;29;20138;-84
2022/01/06 04:27:13;;;;;;;0.80;0.80;;;;;;;-1.59;94.94;97131.56;4953486;29;20055;-85
2022/01/06 04:29:40;;;;;;;0.80;0.80;;;;;;;-1.57;94.97;97131.31;4956692;29;20055;-84
2022/01/06 04:32:07;;;;;;;0.80;0.80;;;;;;;-1.56;94.82;97135.59;4959998;29;20297;-84
2022/01/06 04:34:34;;;;;;;0.90;0.90;;;;;;;-1.52;95.08;97131.50;4954096;29;20470;-85
2022/01/06 04:37:02;;;;;;;0.82;0.82;;;;;;;-1.46;94.99;97141.25;4954125;29;20096;-84
2022/01/06 04:39:29;;;;;;;0.90;0.90;;;;;;;-1.44;94.88;97133.06;4936454;29;20047;-85
2022/01/06 04:41:56;;;;;;;0.82;0.82;;;;;;;-1.42;94.81;97136.31;4953622;29;20140;-85
2022/01/06 04:44:23;;;;;;;0.80;0.80;;;;;;;-1.40;94.65;97135.09;4953491;29;20084;-85
2022/01/06 04:46:50;;;;;;;0.90;0.90;;;;;;;-1.37;94.43;97131.19;4954598;29;20058;-86
2022/01/06 04:49:18;;;;;;;0.75;0.75;;;;;;;-1.39;93.97;97128.78;4938281;29;20631;-86
2022/01/06 04:51:45;;;;;;;0.73;0.73;;;;;;;-1.38;94.29;97138.34;4936812;29;20461;-84
2022/01/06 04:54:12;;;;;;;0.90;0.90;;;;;;;-1.36;93.87;97136.28;4954098;29;20063;-85
2022/01/06 04:56:40;;;;;;;0.90;0.90;;;;;;;-1.36;93.69;97135.47;4936746;29;20081;-84
2022/01/06 04:59:08;;;;;;;0.90;0.90;;;;;;;-1.34;93.85;97142.19;4953940;28;20051;-84
2022/01/06 05:01:37;;;;;;;0.90;0.90;;;;;;;-1.34;93.48;97138.72;4940223;29;20066;-85
2022/01/06 05:04:05;;;;;;;0.80;0.80;;;;;;;-1.36;93.13;97146.88;4940042;29;20047;-84
2022/01/06 05:06:32;;;;;;;0.90;0.90;;;;;;;-1.39;93.13;97149.94;4940295;29;20122;-84
2022/01/06 05:08:59;;;;;;;0.88;0.88;;;;;;;-1.42;93.18;97147.75;4957557;29;20470;-84
2022/01/06 05:11:27;;;;;;;0.90;0.90;;;;;;;-1.43;93.06;97153.22;4957046;29;20051;-85
2022/01/06 05:13:54;;;;;;;0.80;0.80;;;;;;;-1.42;92.93;97154.84;4957337;29;20094;-84
2022/01/06 05:16:22;;;;;;;0.90;0.90;;;;;;;-1.39;92.54;97157.09;4939952;29;20139;-84
2022/01/06 05:18:49;;;;;;;0.77;0.77;;;;;;;-1.37;92.65;97169.09;4956887;29;20114;-84
2022/01/06 05:21:16;;;;;;;0.88;0.88;;;;;;;-1.33;92.29;97159.66;4957521;29;20063;-84
2022/01/06 05:23:43;;;;;;;0.80;0.80;;;;;;;-1.30;92.06;97166.38;4939332;29;20134;-85
2022/01/06 05:26:10;;;;;;;0.80;0.80;;;;;;;-1.35;91.93;97151.13;4957155;29;20142;-85
2022/01/06 05:28:37;;;;;;;0.80;0.80;;;;;;;-1.35;91.98;97153.78;4956615;29;20051;-85
2022/01/06 05:31:04;;;;;;;0.80;0.80;;;;;;;-1.35;91.82;97152.97;4939680;29;20462;-85
2022/01/06 05:33:32;;;;;;;0.90;0.90;;;;;;;-1.36;92.10;97159.31;4956122;29;20526;-85
2022/01/06 05:35:59;;;;;;;0.82;0.82;;;;;;;-1.36;92.21;97161.94;4939726;29;20057;-85
2022/01/06 05:38:26;;;;;;;0.90;0.90;;;;;;;-1.37;92.36;97166.44;4908307;29;20051;-84
2022/01/06 05:40:53;;;;;;;0.90;0.90;;;;;;;-1.33;92.28;97164.97;4956408;29;20142;-85
2022/01/06 05:43:21;;;;;;;0.80;0.80;;;;;;;-1.29;91.85;97161.88;4944137;29;20059;-84
2022/01/06 05:45:51;;;;;;;0.80;0.80;;;;;;;-1.27;91.83;97160.66;4947749;29;20058;-85
2022/01/06 05:48:18;;;;;;;0.80;0.80;;;;;;;-1.28;91.46;97147.66;4952078;29;20058;-86
2022/01/06 05:50:49;;;;;;;0.80;0.80;;;;;;;-1.28;91.10;97160.88;4920563;29;20542;-84
2022/01/06 05:53:19;;;;;;;0.80;0.80;;;;;;;-1.29;90.90;97164.53;4956961;29;20058;-85
2022/01/06 05:55:47;;;;;;;0.80;0.80;;;;;;;-1.30;90.96;97166.38;4948629;29;20060;-84
2022/01/06 05:58:14;;;;;;;0.90;0.90;;;;;;;-1.34;90.63;97158.06;4950402;29;20051;-84
2022/01/06 06:00:42;;;;;;;0.90;0.90;;;;;;;-1.28;90.34;97163.53;4943552;29;20065;-86
2022/01/06 06:03:09;;;;;;;0.70;0.70;;;;;;;-1.31;90.27;97162.91;4941811;29;20059;-86
2022/01/06 06:05:41;;;;;;;0.80;0.80;;;;;;;-1.31;90.06;97162.91;4945119;29;20102;-85
2022/01/06 06:08:09;;;;;;;0.80;0.80;;;;;;;-1.31;89.85;97160.28;4949895;29;20047;-90
2022/01/06 06:10:37;;;;;;;0.90;0.90;;;;;;;-1.36;89.87;97162.75;4944106;28;20047;-88
2022/01/06 06:13:04;;;;;;;0.90;0.90;;;;;;;-1.35;89.96;97159.06;4935358;29;20487;-86
2022/01/06 06:15:35;;;;;;;0.90;0.90;;;;;;;-1.34;90.00;97157.25;4926403;29;20538;-84
2022/01/06 06:18:03;;;;;;;0.85;0.85;;;;;;;-1.38;90.23;97159.50;4946126;29;20051;-83
2022/01/06 06:20:35;;;;;;;0.75;0.75;;;;;;;-1.36;90.19;97157.47;4949475;29;20058;-87
2022/01/06 06:23:02;;;;;;;0.90;0.90;;;;;;;-1.38;89.98;97151.56;4947788;29;20138;-85
2022/01/06 06:25:30;;;;;;;0.85;0.85;;;;;;;-1.34;90.02;97152.78;4945597;29;20083;-84
2022/01/06 06:27:57;;;;;;;0.80;0.80;;;;;;;-1.29;89.99;97157.44;4947382;29;20047;-86
2022/01/06 06:30:24;;;;;;;0.90;0.90;;;;;;;-1.31;89.85;97154.19;4589528;29;10000451;-85
2022/01/06 06:32:52;;;;;;;0.80;0.80;;;;;;;-1.31;89.70;97147.03;4943942;29;20161;-84
2022/01/06 06:35:19;;;;;;;0.80;0.80;;;;;;;-1.35;89.74;97143.19;4945463;29;20063;-89
2022/01/06 06:37:46;;;;;;;0.77;0.77;;;;;;;-1.38;89.95;97142.81;4933230;29;20103;-84
2022/01/06 06:40:13;;;;;;;0.73;0.73;;;;;;;-1.35;90.10;97147.69;4933045;29;20062;-92
2022/01/06 06:42:41;;;;;;;0.80;0.80;;;;;;;-1.38;89.81;97146.28;4947681;28;20144;-89
2022/01/06 06:45:09;;;;;;;0.90;0.90;;;;;;;-1.35;89.95;97142.38;4951358;29;20051;-89
2022/01/06 06:47:37;;;;;;;0.90;0.90;;;;;;;-1.33;89.72;97145.63;4941855;29;20051;-89
2022/01/06 06:50:05;;;;;;;0.80;0.80;;;;;;;-1.34;89.63;97149.31;4938267;29;20048;-87
2022/01/06 06:52:32;;;;;;;0.90;0.90;;;;;;;-1.36;89.56;97143.41;4947128;29;20080;-91
2022/01/06 06:54:59;;;;;;;0.70;0.70;;;;;;;-1.35;89.92;97145.84;4944109;29;20059;-89
2022/01/06 06:57:27;;;;;;;0.80;0.80;;;;;;;-1.32;90.06;97140.13;4942377;29;20056;-90
2022/01/06 06:59:54;;;;;;;0.80;0.80;;;;;;;-1.28;89.96;97142.34;4949814;29;20098;-87
2022/01/06 07:02:21;;;;;;;0.80;0.80;;;;;;;-1.28;90.07;97137.88;4944446;29;20114;-88
2022/01/06 07:04:48;;;;;;;0.90;0.90;;;;;;;-1.27;89.90;97143.97;4945778;29;20052;-87
2022/01/06 07:07:15;;;;;;;0.90;0.90;;;;;;;-1.34;89.88;97139.53;4948291;29;20051;-91
2022/01/06 07:09:42;;;;;;;0.90;0.90;;;;;;;-1.35;89.88;97145.84;4948223;29;20142;-89
2022/01/06 07:12:09;;;;;;;1.00;1.00;;;;;;;-1.29;90.16;97153.94;4937408;29;20074;-85
2022/01/06 07:14:36;;;;;;;0.75;0.75;;;;;;;-1.28;90.41;97150.28;4927137;29;20126;-91
2022/01/06 07:17:05;;;;;;;0.80;0.80;;;;;;;-1.26;90.28;97150.91;4920508;29;20054;-89
2022/01/06 07:19:32;;;;;;;0.70;0.70;;;;;;;-1.28;90.02;97145.00;4927639;29;20458;-87
2022/01/06 07:21:59;;;;;;;0.90;0.90;;;;;;;-1.30;90.22;97145.19;4945752;29;20138;-88
2022/01/06 07:24:26;;;;;;;0.80;0.80;;;;;;;-1.36;90.06;97144.22;4945879;29;20507;-87
2022/01/06 07:26:53;;;;;;;0.75;0.75;;;;;;;-1.35;90.20;97145.84;4943998;29;20063;-87
2022/01/06 07:29:20;;;;;;;0.80;0.80;;;;;;;-1.33;90.30;97146.44;4943912;29;20151;-87
2022/01/06 07:31:47;;;;;;;0.85;0.85;;;;;;;-1.31;90.12;97159.47;4949499;29;20467;-88
2022/01/06 07:34:15;;;;;;;0.77;0.77;;;;;;;-1.33;90.14;97162.31;4942868;29;20055;-87
2022/01/06 07:36:42;;;;;;;0.80;0.80;;;;;;;-1.34;90.05;97157.25;4942459;29;20059;-87
2022/01/06 07:39:12;;;;;;;0.90;0.90;;;;;;;-1.36;90.04;97151.34;4951818;29;20063;-87
2022/01/06 07:41:39;;;;;;;0.90;0.90;;;;;;;-1.34;90.22;97151.97;4941629;29;20484;-88
2022/01/06 07:44:07;;;;;;;0.80;0.80;;;;;;;-1.25;90.09;97163.09;4959958;29;20071;-90
2022/01/06 07:46:35;;;;;;;1.00;1.00;;;;;;;-1.23;90.19;97156.56;4934633;29;20055;-90
2022/01/06 07:49:03;;;;;;;0.88;0.88;;;;;;;-1.26;89.96;97143.75;4947567;29;20052;-92
2022/01/06 07:51:31;;;;;;;0.90;0.90;;;;;;;-1.26;90.05;97150.91;4922942;29;20106;-89
2022/01/06 07:53:59;;;;;;;0.90;0.90;;;;;;;-1.26;90.06;97150.91;4930382;29;20052;-87
2022/01/06 07:56:26;;;;;;;0.80;0.80;;;;;;;-1.23;89.94;97145.16;4938486;29;20059;-92
2022/01/06 07:58:54;;;;;;;0.85;0.85;;;;;;;-1.20;89.77;97140.25;4931801;29;20609;-93
2022/01/06 08:01:22;;;;;;;0.90;0.90;;;;;;;-1.25;89.58;97140.06;4938782;29;20730;-90
2022/01/06 08:03:51;;;;;;;0.80;0.80;;;;;;;-1.24;89.71;97138.22;4948288;29;20701;-90
2022/01/06 08:06:19;;;;;;;0.70;0.70;;;;;;;-1.19;89.90;97125.16;4948320;29;20158;-86
2022/01/06 08:08:46;;;;;;;0.70;0.70;;;;;;;-1.24;89.80;97132.94;4943209;29;20078;-90
2022/01/06 08:11:14;;;;;;;0.80;0.80;;;;;;;-1.22;89.65;97130.88;4926041;29;20123;-91
2022/01/06 08:13:41;;;;;;;0.80;0.80;;;;;;;-1.23;89.69;97126.63;4942561;29;20154;-93
2022/01/06 08:16:08;;;;;;;0.80;0.80;;;;;;;-1.26;89.87;97130.53;4968437;29;20051;-94
2022/01/06 08:18:35;;;;;;;0.73;0.73;;;;;;;-1.27;90.01;97125.44;4964406;29;20115;-91
2022/01/06 08:21:03;;;;;;;0.80;0.80;;;;;;;-1.29;90.23;97117.72;4957887;29;20502;-92
2022/01/06 08:23:31;;;;;;;0.90;0.90;;;;;;;-1.31;90.21;97120.56;4951053;29;20087;-91
2022/01/06 08:25:59;;;;;;;0.88;0.88;;;;;;;-1.26;90.14;97127.06;4954619;29;20078;-92
2022/01/06 08:28:26;;;;;;;0.88;0.88;;;;;;;-1.26;90.01;97127.06;4949525;29;20082;-91
2022/01/06 08:30:54;;;;;;;0.80;0.80;;;;;;;-1.24;90.13;97128.47;4944494;29;20051;-90
2022/01/06 08:33:21;;;;;;;0.70;0.70;;;;;;;-1.18;89.99;97132.09;4946854;29;20052;-93
2022/01/06 08:35:48;;;;;;;0.90;0.90;;;;;;;-1.16;89.95;97127.41;4942200;28;20047;-92
2022/01/06 08:38:15;;;;;;;0.80;0.80;;;;;;;-1.13;89.85;97119.03;4946100;29;20040;-92
2022/01/06 08:40:43;;;;;;;0.90;0.90;;;;;;;-1.07;89.78;97126.09;4947809;29;20085;-91
2022/01/06 08:43:10;;;;;;;0.90;0.90;;;;;;;-1.04;89.33;97133.59;4943478;29;20071;-90
2022/01/06 08:45:37;;;;;;;0.90;0.90;;;;;;;-1.07;89.84;97125.28;4943213;29;20409;-92
2022/01/06 08:48:05;;;;;;;0.90;0.90;;;;;;;-1.01;89.83;97117.31;4928735;29;20098;-91
2022/01/06 08:50:32;;;;;;;0.90;0.90;;;;;;;-0.98;89.13;97116.84;4925484;29;20047;-92
2022/01/06 08:53:01;;;;;;;0.70;0.70;;;;;;;-0.95;88.79;97120.91;4915084;29;20209;-89
2022/01/06 08:55:29;;;;;;;0.90;0.90;;;;;;;-0.91;88.82;97122.09;4934384;29;20467;-88
2022/01/06 08:57:57;;;;;;;0.90;0.90;;;;;;;-0.98;88.89;97121.34;4943416;29;20065;-90
2022/01/06 09:00:27;;;;;;;0.95;0.95;;;;;;;-0.99;89.01;97128.47;4940590;29;20223;-88
2022/01/06 09:02:58;;;;;;;0.90;0.90;;;;;;;-0.99;89.10;97115.22;4945570;29;20043;-88
2022/01/06 09:05:41;;;;;;;0.80;0.80;;;;;;;-1.06;89.29;97119.78;4924760;29;20138;-88
2022/01/06 09:08:08;;;;;;;0.90;0.90;;;;;;;-1.09;89.23;97117.53;4943280;29;20047;-89
2022/01/06 09:10:38;;;;;;;0.90;0.90;;;;;;;-1.07;89.26;97112.03;4947321;29;20058;-88
2022/01/06 09:13:27;;;;;;;0.90;0.90;;;;;;;-1.06;89.38;97119.78;4926001;29;20075;-89
2022/01/06 09:15:55;;;;;;;0.90;0.90;;;;;;;-1.05;89.29;97116.09;4922132;29;20094;-90
2022/01/06 09:18:23;;;;;;;0.77;0.77;;;;;;;-1.08;89.20;97113.09;4951076;29;20027;-89
2022/01/06 09:20:50;;;;;;;0.85;0.85;;;;;;;-1.01;89.46;97116.47;4959671;29;20052;-86
2022/01/06 09:23:17;;;;;;;0.90;0.90;;;;;;;-0.98;89.39;97111.56;4937752;29;20075;-88
2022/01/06 09:25:44;;;;;;;0.90;0.90;;;;;;;-0.97;89.11;97112.38;4949689;29;20896;-90
2022/01/06 09:28:12;;;;;;;0.80;0.80;;;;;;;-0.91;89.39;97120.25;4956263;29;20411;-92
2022/01/06 09:30:50;;;;;;;0.90;0.90;;;;;;;-0.88;89.05;97116.38;4945321;29;20062;-90
2022/01/06 09:33:21;;;;;;;0.77;0.77;;;;;;;-0.91;89.06;97117.63;4928953;29;20055;-89
2022/01/06 09:35:50;;;;;;;0.70;0.70;;;;;;;-0.88;89.03;97117.19;4942571;29;20052;-88
2022/01/06 09:38:17;;;;;;;0.90;0.90;;;;;;;-0.89;89.00;97115.56;4919504;29;20084;-87
2022/01/06 09:40:44;;;;;;;1.00;1.00;;;;;;;-0.90;89.01;97116.56;4933521;29;20111;-91
2022/01/06 09:43:13;;;;;;;0.80;0.80;;;;;;;-0.90;89.64;97113.13;4938094;29;20056;-91
2022/01/06 09:45:41;;;;;;;0.90;0.90;;;;;;;-0.90;90.25;97121.88;4934251;29;20051;-89
2022/01/06 09:48:09;;;;;;;0.90;0.90;;;;;;;-0.90;90.73;97113.94;4937863;29;20494;-91
2022/01/06 09:50:42;;;;;;;1.00;1.00;;;;;;;-0.86;90.76;97114.31;4938569;29;20052;-89
2022/01/06 09:53:11;;;;;;;0.90;0.90;;;;;;;-0.84;90.80;97114.09;4924880;29;20061;-87
2022/01/06 09:55:39;;;;;;;0.90;0.90;;;;;;;-0.89;90.68;97110.28;4943496;29;20060;-87
2022/01/06 09:58:06;;;;;;;0.80;0.80;;;;;;;-0.90;90.45;97111.28;4936411;29;20055;-89
2022/01/06 10:00:35;;;;;;;0.88;0.88;;;;;;;-0.91;90.41;97106.22;4942013;29;20043;-91
2022/01/06 10:03:07;;;;;;;0.90;0.90;;;;;;;-0.92;90.20;97118.63;4945570;29;20070;-90
2022/01/06 10:05:39;;;;;;;0.82;0.82;;;;;;;-0.89;90.33;97110.28;4923400;29;20047;-87
2022/01/06 10:08:13;;;;;;;0.90;0.90;;;;;;;-0.81;90.31;97098.59;4945547;29;20086;-89
2022/01/06 10:10:41;;;;;;;0.80;0.80;;;;;;;-0.75;90.15;97102.19;4930879;29;20465;-90
2022/01/06 10:13:16;;;;;;;0.90;0.90;;;;;;;-0.76;89.71;97098.75;4954475;29;20051;-93
2022/01/06 10:15:43;;;;;;;1.00;1.00;;;;;;;-0.76;89.32;97093.44;4944897;29;20586;-88
2022/01/06 10:18:16;;;;;;;0.80;0.80;;;;;;;-0.78;89.21;97094.69;4922891;29;20055;-89
2022/01/06 10:20:47;;;;;;;0.90;0.90;;;;;;;-0.79;89.26;97101.00;4944391;29;20063;-91
2022/01/06 10:23:15;;;;;;;0.70;0.70;;;;;;;-0.79;89.57;97096.50;4930741;29;20054;-89
2022/01/06 10:25:48;;;;;;;0.70;0.70;;;;;;;-0.81;89.53;97101.22;4905175;29;20102;-89
2022/01/06 10:28:24;;;;;;;0.85;0.85;;;;;;;-0.79;89.63;97096.50;4939382;29;20126;-92
2022/01/06 10:30:52;;;;;;;0.90;0.90;;;;;;;-0.78;89.57;97097.34;4922526;29;20063;-89
2022/01/06 10:33:21;;;;;;;0.70;0.70;;;;;;;-0.83;89.28;97098.00;4920147;29;20400;-89
2022/01/06 10:35:48;;;;;;;0.90;0.90;;;;;;;-0.89;89.44;97102.31;4903555;29;20058;-88
2022/01/06 10:38:28;;;;;;;0.90;0.90;;;;;;;-0.89;89.84;97094.38;4920278;29;20047;-87
2022/01/06 10:41:15;;;;;;;0.80;0.80;;;;;;;-0.89;89.92;97097.03;4942816;29;20061;-86
2022/01/06 10:43:56;;;;;;;0.90;0.90;;;;;;;-0.84;89.91;97095.53;4947836;29;20066;-89
2022/01/06 10:46:31;;;;;;;0.80;0.80;;;;;;;-0.80;89.87;97094.09;4950042;29;20062;-88
2022/01/06 10:49:00;;;;;;;0.85;0.85;;;;;;;-0.73;89.72;97100.16;4949152;29;20055;-86
2022/01/06 10:51:35;;;;;;;0.80;0.80;;;;;;;-0.68;89.33;97095.00;4946857;29;20114;-89
2022/01/06 10:54:04;;;;;;;0.82;0.82;;;;;;;-0.61;89.09;97094.91;4948031;29;20047;-89
2022/01/06 10:56:32;;;;;;;0.93;0.93;;;;;;;-0.50;88.90;97091.53;4943158;29;20087;-89
2022/01/06 10:58:59;;;;;;;0.90;0.90;;;;;;;-0.47;88.74;97085.81;4942926;29;20098;-89
2022/01/06 11:01:32;;;;;;;0.98;0.98;;;;;;;-0.48;88.74;97092.13;4960600;29;20338;-89
2022/01/06 11:03:59;;;;;;;0.80;0.80;;;;;;;-0.47;89.00;97091.09;4958172;29;20070;-88
2022/01/06 11:06:26;;;;;;;0.90;0.90;;;;;;;-0.58;88.88;97089.16;4954004;29;20055;-87
2022/01/06 11:08:54;;;;;;;0.70;0.70;;;;;;;-0.67;89.01;97091.31;4947142;29;20047;-87
2022/01/06 11:11:32;;;;;;;0.88;0.88;;;;;;;-0.70;88.96;97086.44;4952003;29;20078;-86
2022/01/06 11:14:00;;;;;;;0.90;0.90;;;;;;;-0.73;89.16;97089.53;4954875;29;20095;-86
2022/01/06 11:16:27;;;;;;;0.70;0.70;;;;;;;-0.80;89.15;97086.94;4933806;29;20056;-86
2022/01/06 11:18:58;;;;;;;0.82;0.82;;;;;;;-0.86;89.46;97087.84;4926363;29;20511;-88
2022/01/06 11:21:34;;;;;;;0.90;0.90;;;;;;;-0.89;89.63;97093.53;4938235;29;20474;-91
2022/01/06 11:24:13;;;;;;;0.90;0.90;;;;;;;-0.89;90.24;97088.25;4956820;29;20055;-88
2022/01/06 11:26:41;;;;;;;0.77;0.77;;;;;;;-0.85;89.90;97084.16;4957561;29;20051;-89
2022/01/06 11:29:09;;;;;;;0.80;0.80;;;;;;;-0.74;90.03;97090.56;4955911;29;20163;-88
2022/01/06 11:31:41;;;;;;;0.88;0.88;;;;;;;-0.69;90.00;97083.56;4937482;29;20098;-90
2022/01/06 11:34:17;;;;;;;0.80;0.80;;;;;;;-0.59;89.68;97083.06;4937748;29;20047;-88
2022/01/06 11:36:45;;;;;;;0.90;0.90;;;;;;;-0.49;89.42;97078.06;4917337;29;20052;-89
2022/01/06 11:39:30;;;;;;;0.90;0.90;;;;;;;-0.31;89.09;97079.88;4944317;29;20055;-88
2022/01/06 11:41:58;;;;;;;0.77;0.77;;;;;;;-0.40;88.63;97086.53;4956661;29;20562;-88
2022/01/06 11:44:35;;;;;;;0.90;0.90;;;;;;;-0.49;88.46;97083.34;4955336;29;20137;-85
2022/01/06 11:47:03;;;;;;;0.90;0.90;;;;;;;-0.48;88.46;97085.00;4955402;29;20055;-84
2022/01/06 11:49:41;;;;;;;0.90;0.90;;;;;;;-0.40;88.59;97081.25;4955689;29;20150;-86
2022/01/06 11:52:14;;;;;;;0.90;0.90;;;;;;;-0.38;88.78;97087.13;4954990;29;20138;-85
2022/01/06 11:54:52;;;;;;;0.80;0.80;;;;;;;-0.39;88.65;97087.34;4954743;29;20425;-85